Time;durP1;ratioP1;P1;durP2;ratioP2;P2;SDS_P1;SDS_P2;PMS_P1;PMS_P2;Temp;Humidity;BMP_temperature;BMP_pressure;BME280_temperature;BME280_humidity;BME280_pressure;Samples;Min_cycle;Max_cycle;Signal;HPM_P1;HPM_P2
2022/09/13 00:01:37;;;;;;;;;;;;;;;14.34;83.13;96947.22;5008259;28;20008;-62
2022/09/13 00:04:03;;;;;;;;;;;;;;;14.53;82.52;96943.78;5009054;28;20383;-63
2022/09/13 00:06:30;;;;;;;;;;;;;;;14.69;81.41;96938.97;5009194;28;20015;-63
2022/09/13 00:08:57;;;;;;;;;;;;;;;14.83;80.82;96939.13;5013471;28;20065;-62
2022/09/13 00:11:25;;;;;;;;;;;;;;;14.85;80.26;96931.47;5027987;28;19921;-62
2022/09/13 00:13:52;;;;;;;;;;;;;;;14.86;80.26;96933.09;5027946;28;19927;-63
2022/09/13 00:16:19;;;;;;;;;;;;;;;14.87;80.41;96926.53;5027996;28;19921;-63
2022/09/13 00:18:46;;;;;;;;;;;;;;;14.83;80.47;96926.28;5023489;28;19921;-62
2022/09/13 00:21:15;;;;;;;;;;;;;;;14.70;81.43;96929.69;5007966;28;19921;-62
2022/09/13 00:23:45;;;;;;;;;;;;;;;14.79;80.99;96938.91;5013370;28;19929;-62
2022/09/13 00:26:13;;;;;;;;;;;;;;;14.75;81.22;96935.09;5028397;28;19921;-62
2022/09/13 00:28:40;;;;;;;;;;;;;;;14.57;82.53;96940.19;5022331;28;19921;-62
2022/09/13 00:31:07;;;;;;;;;;;;;;;14.33;83.85;96939.38;5007585;28;20015;-62
2022/09/13 00:33:34;;;;;;;;;;;;;;;14.10;84.89;96934.38;5011498;28;20311;-63
2022/09/13 00:36:05;;;;;;;;;;;;;;;13.93;85.85;96921.16;5027775;28;19999;-62
2022/09/13 00:38:33;;;;;;;;;;;;;;;13.96;85.97;96927.97;5026238;28;20020;-62
2022/09/13 00:41:00;;;;;;;;;;;;;;;13.89;86.27;96922.84;5027711;28;20194;-63
2022/09/13 00:44:01;;;;;;;;;;;;;;;13.97;85.87;96919.50;5042508;28;19975;-63
2022/09/13 00:46:31;;;;;;;;;;;;;;;14.01;86.05;96909.69;5005167;28;20495;-63
2022/09/13 00:49:16;;;;;;;;;;;;;;;13.96;86.25;96901.56;5021043;28;19925;-62
2022/09/13 00:51:45;;;;;;;;;;;;;;;14.09;85.84;96902.81;5024012;28;20413;-62
2022/09/13 00:54:12;;;;;;;;;;;;;;;14.17;85.40;96904.94;5034851;28;20096;-62
2022/09/13 00:56:42;;;;;;;;;;;;;;;14.18;85.37;96911.97;5027497;28;20366;-62
2022/09/13 00:59:13;;;;;;;;;;;;;;;14.15;85.50;96909.00;5019368;28;19925;-62
2022/09/13 01:01:43;;;;;;;;;;;;;;;14.07;85.68;96902.28;5016726;28;19960;-62
2022/09/13 01:04:10;;;;;;;;;;;;;;;13.95;86.29;96899.13;5025362;28;19921;-62
2022/09/13 01:06:39;;;;;;;;;;;;;;;13.91;86.55;96907.06;5022142;28;19921;-63
2022/09/13 01:09:06;;;;;;;;;;;;;;;13.87;87.03;96901.38;5002884;28;20215;-62
2022/09/13 01:11:32;;;;;;;;;;;;;;;13.85;87.19;96900.00;5022715;28;19929;-63
2022/09/13 01:13:58;;;;;;;;;;;;;;;13.83;86.90;96899.50;5022362;28;19921;-63
2022/09/13 01:16:25;;;;;;;;;;;;;;;13.85;86.60;96905.47;5035665;28;19921;-62
2022/09/13 01:18:51;;;;;;;;;;;;;;;13.78;86.68;96905.78;5026151;28;20329;-62
2022/09/13 01:21:37;;;;;;;;;;;;;;;13.84;86.61;96917.44;5026344;28;19928;-62
2022/09/13 01:24:12;;;;;;;;;;;;;;;13.70;87.18;96914.56;5013644;28;20211;-62
2022/09/13 01:26:57;;;;;;;;;;;;;;;13.68;87.18;96909.41;5024849;28;19935;-63
2022/09/13 01:29:43;;;;;;;;;;;;;;;13.59;88.29;96901.03;5007185;28;20012;-62
2022/09/13 01:32:15;;;;;;;;;;;;;;;13.64;87.94;96909.16;5021508;28;20007;-63
2022/09/13 01:34:44;;;;;;;;;;;;;;;13.66;87.67;96908.88;5015290;28;19922;-62
2022/09/13 01:37:31;;;;;;;;;;;;;;;13.58;87.76;96899.41;5015766;28;20036;-62
2022/09/13 01:40:12;;;;;;;;;;;;;;;13.55;87.85;96907.31;5006936;28;19925;-63
2022/09/13 01:42:48;;;;;;;;;;;;;;;13.52;88.24;96908.69;5014330;28;20447;-62
2022/09/13 01:45:14;;;;;;;;;;;;;;;13.46;88.71;96912.53;5026579;28;19921;-63
2022/09/13 01:47:53;;;;;;;;;;;;;;;13.45;89.38;96906.25;5026800;28;20011;-63
2022/09/13 01:50:32;;;;;;;;;;;;;;;13.41;88.93;96916.09;5021252;28;19921;-63
2022/09/13 01:53:02;;;;;;;;;;;;;;;13.41;89.27;96907.91;5031852;28;19935;-63
2022/09/13 01:55:32;;;;;;;;;;;;;;;13.43;88.69;96908.47;5018008;28;19921;-61
2022/09/13 01:58:17;;;;;;;;;;;;;;;13.32;89.51;96906.91;5005787;28;19961;-62
2022/09/13 02:00:50;;;;;;;;;;;;;;;13.31;89.50;96908.00;5026036;28;20307;-62
2022/09/13 02:03:19;;;;;;;;;;;;;;;13.30;89.88;96909.09;5022772;28;19921;-63
2022/09/13 02:05:53;;;;;;;;;;;;;;;13.31;89.96;96911.53;5017165;28;20307;-62
2022/09/13 02:08:40;;;;;;;;;;;;;;;13.34;89.80;96921.03;5009760;28;20475;-63
2022/09/13 02:11:08;;;;;;;;;;;;;;;13.40;89.58;96922.63;5022006;28;19921;-63
2022/09/13 02:13:40;;;;;;;;;;;;;;;13.35;89.48;96926.16;5019572;28;19987;-63
2022/09/13 02:16:14;;;;;;;;;;;;;;;13.30;89.78;96933.56;5019295;28;20446;-63
2022/09/13 02:18:41;;;;;;;;;;;;;;;13.21;90.18;96923.28;5024211;28;19925;-62
2022/09/13 02:21:11;;;;;;;;;;;;;;;13.20;89.97;96920.84;5026307;28;19932;-62
2022/09/13 02:23:43;;;;;;;;;;;;;;;13.09;90.72;96923.59;5025158;28;20019;-63
2022/09/13 02:26:12;;;;;;;;;;;;;;;13.01;91.35;96918.75;5012881;28;20463;-62
2022/09/13 02:28:42;;;;;;;;;;;;;;;13.06;90.97;96913.31;5019099;28;19921;-62
2022/09/13 02:31:10;;;;;;;;;;;;;;;13.00;91.53;96920.66;5016470;28;19921;-62
2022/09/13 02:33:49;;;;;;;;;;;;;;;13.04;91.41;96917.41;5011524;28;20390;-62
2022/09/13 02:36:18;;;;;;;;;;;;;;;13.11;91.22;96916.00;5012480;28;20096;-62
2022/09/13 02:38:54;;;;;;;;;;;;;;;13.05;91.50;96922.53;5012239;28;20399;-63
2022/09/13 02:41:21;;;;;;;;;;;;;;;13.03;91.29;96926.63;5026180;28;19956;-63
2022/09/13 02:43:50;;;;;;;;;;;;;;;13.00;91.55;96931.53;5022667;28;19925;-61
2022/09/13 02:46:32;;;;;;;;;;;;;;;12.90;91.98;96928.03;5016198;28;19981;-62
2022/09/13 02:48:58;;;;;;;;;;;;;;;12.70;92.41;96933.28;5026088;28;19928;-63
2022/09/13 02:51:31;;;;;;;;;;;;;;;12.68;93.14;96927.28;5011098;28;19921;-63
2022/09/13 02:54:05;;;;;;;;;;;;;;;12.63;93.52;96915.66;5019552;28;20366;-62
2022/09/13 02:56:44;;;;;;;;;;;;;;;12.51;93.78;96908.63;5023518;28;19921;-62
2022/09/13 02:59:13;;;;;;;;;;;;;;;12.58;93.48;96901.00;5020463;28;20479;-62
2022/09/13 03:01:40;;;;;;;;;;;;;;;12.66;93.32;96901.50;5014425;28;19921;-63
2022/09/13 03:04:07;;;;;;;;;;;;;;;12.71;92.81;96899.59;5023975;28;19929;-63
2022/09/13 03:06:33;;;;;;;;;;;;;;;12.74;92.83;96892.78;5010951;28;19931;-63
2022/09/13 03:09:02;;;;;;;;;;;;;;;12.78;92.66;96898.50;5006171;28;19921;-62
2022/09/13 03:11:40;;;;;;;;;;;;;;;12.80;92.78;96901.72;5029112;28;20051;-62
2022/09/13 03:14:14;;;;;;;;;;;;;;;12.77;92.48;96900.38;5028400;28;19932;-62
2022/09/13 03:16:43;;;;;;;;;;;;;;;12.50;93.24;96890.72;5013397;28;20012;-63
2022/09/13 03:19:10;;;;;;;;;;;;;;;12.22;94.58;96885.63;5018350;28;19944;-62
2022/09/13 03:21:59;;;;;;;;;;;;;;;12.10;95.41;96891.31;5008742;28;19925;-62
2022/09/13 03:24:35;;;;;;;;;;;;;;;12.12;95.45;96901.09;5022322;28;19921;-62
2022/09/13 03:27:17;;;;;;;;;;;;;;;12.17;95.17;96904.59;5010176;28;20452;-63
2022/09/13 03:30:02;;;;;;;;;;;;;;;12.06;95.62;96913.88;5020996;28;20019;-63
2022/09/13 03:32:32;;;;;;;;;;;;;;;11.99;96.46;96910.56;5009170;28;20392;-63
2022/09/13 03:35:17;;;;;;;;;;;;;;;12.07;96.04;96907.34;5027194;28;20185;-62
2022/09/13 03:38:02;;;;;;;;;;;;;;;12.05;96.27;96895.94;5009958;28;19932;-63
2022/09/13 03:40:32;;;;;;;;;;;;;;;12.06;96.25;96889.44;5016484;28;20047;-63
2022/09/13 03:43:05;;;;;;;;;;;;;;;12.00;95.41;96896.75;5034312;28;19920;-63
2022/09/13 03:45:34;;;;;;;;;;;;;;;11.91;95.95;96899.16;5022624;28;20016;-62
2022/09/13 03:48:01;;;;;;;;;;;;;;;11.83;96.67;96900.53;5010179;28;19951;-63
2022/09/13 03:50:28;;;;;;;;;;;;;;;11.87;96.85;96898.09;5024025;28;19998;-63
2022/09/13 03:53:00;;;;;;;;;;;;;;;11.86;97.25;96885.63;5028348;28;19931;-62
2022/09/13 03:55:27;;;;;;;;;;;;;;;11.88;97.19;96883.47;5023760;28;19926;-63
2022/09/13 03:57:54;;;;;;;;;;;;;;;11.88;97.01;96882.63;5020915;28;19927;-61
2022/09/13 04:00:20;;;;;;;;;;;;;;;11.76;96.11;96885.63;5017732;28;19922;-62
2022/09/13 04:02:47;;;;;;;;;;;;;;;11.79;97.04;96879.69;5028005;28;19925;-64
2022/09/13 04:05:13;;;;;;;;;;;;;;;11.71;97.69;96878.31;5024907;28;20408;-62
2022/09/13 04:07:39;;;;;;;;;;;;;;;11.65;97.96;96880.19;5025935;28;20015;-63
2022/09/13 04:10:06;;;;;;;;;;;;;;;11.60;98.06;96885.63;5015335;28;19925;-62
2022/09/13 04:12:40;;;;;;;;;;;;;;;11.62;98.38;96885.34;5026242;28;20530;-62
2022/09/13 04:15:07;;;;;;;;;;;;;;;11.55;98.70;96881.03;5024971;28;19939;-62
2022/09/13 04:17:33;;;;;;;;;;;;;;;11.60;99.03;96890.25;5019838;28;19951;-62
2022/09/13 04:19:59;;;;;;;;;;;;;;;11.55;99.33;96888.34;5021488;28;20336;-63
2022/09/13 04:22:26;;;;;;;;;;;;;;;11.75;98.18;96905.72;5026273;28;19987;-63
2022/09/13 04:24:52;;;;;;;;;;;;;;;11.79;97.66;96914.94;5019755;28;20016;-62
2022/09/13 04:27:18;;;;;;;;;;;;;;;11.79;98.01;96920.38;5027492;28;20380;-62
2022/09/13 04:29:45;;;;;;;;;;;;;;;11.78;98.08;96919.53;5027121;28;19963;-63
2022/09/13 04:32:11;;;;;;;;;;;;;;;11.88;97.46;96905.16;5027250;28;19921;-63
2022/09/13 04:34:37;;;;;;;;;;;;;;;11.90;97.15;96900.25;5025870;28;20364;-61
2022/09/13 04:37:04;;;;;;;;;;;;;;;11.96;96.97;96898.38;5022012;28;19921;-62
2022/09/13 04:39:30;;;;;;;;;;;;;;;11.97;97.04;96902.69;5026577;28;19921;-62
2022/09/13 04:41:57;;;;;;;;;;;;;;;12.12;96.77;96895.69;5024563;28;19920;-62
2022/09/13 04:44:23;;;;;;;;;;;;;;;12.00;96.92;96901.34;5026162;28;20335;-62
2022/09/13 04:46:50;;;;;;;;;;;;;;;11.96;97.30;96911.94;5014174;28;19971;-62
2022/09/13 04:49:17;;;;;;;;;;;;;;;12.01;97.55;96913.84;5027327;28;19925;-63
2022/09/13 04:51:43;;;;;;;;;;;;;;;12.03;96.84;96925.22;5017609;28;19951;-63
2022/09/13 04:54:10;;;;;;;;;;;;;;;11.90;97.82;96927.41;5028217;28;19935;-62
2022/09/13 04:56:41;;;;;;;;;;;;;;;11.84;98.86;96931.22;5018859;28;19928;-63
2022/09/13 04:59:09;;;;;;;;;;;;;;;11.93;98.22;96923.31;5021833;28;19925;-63
2022/09/13 05:01:36;;;;;;;;;;;;;;;12.01;98.13;96924.69;5022626;28;19960;-62
2022/09/13 05:04:03;;;;;;;;;;;;;;;12.03;97.59;96914.38;5020845;28;19925;-62
2022/09/13 05:06:29;;;;;;;;;;;;;;;12.12;96.70;96918.19;5018857;28;19933;-62
2022/09/13 05:08:56;;;;;;;;;;;;;;;12.16;96.38;96929.31;5025031;28;20319;-63
2022/09/13 05:11:23;;;;;;;;;;;;;;;12.15;96.68;96922.25;5023725;28;19927;-62
2022/09/13 05:13:54;;;;;;;;;;;;;;;11.96;98.14;96930.94;5021233;28;20232;-63
2022/09/13 05:16:21;;;;;;;;;;;;;;;12.03;97.52;96917.09;5024508;28;20507;-63
2022/09/13 05:18:47;;;;;;;;;;;;;;;12.03;97.37;96923.34;5025007;28;20307;-63
2022/09/13 05:21:14;;;;;;;;;;;;;;;12.19;96.36;96929.59;5020955;28;19983;-62
2022/09/13 05:23:40;;;;;;;;;;;;;;;12.10;96.67;96934.72;5021149;28;20012;-62
2022/09/13 05:26:07;;;;;;;;;;;;;;;11.94;98.34;96943.97;5022784;28;20011;-62
2022/09/13 05:28:34;;;;;;;;;;;;;;;12.03;98.07;96946.94;5024499;28;19921;-63
2022/09/13 05:31:05;;;;;;;;;;;;;;;12.04;97.92;96949.38;5027891;28;20059;-62
2022/09/13 05:33:32;;;;;;;;;;;;;;;12.09;97.61;96940.47;5011580;28;20330;-62
2022/09/13 05:35:59;;;;;;;;;;;;;;;12.16;96.97;96945.63;5023639;28;20279;-62
2022/09/13 05:38:25;;;;;;;;;;;;;;;12.25;96.35;96943.13;5019546;28;19932;-62
2022/09/13 05:40:59;;;;;;;;;;;;;;;12.30;96.04;96946.66;5021400;28;20012;-63
2022/09/13 05:43:27;;;;;;;;;;;;;;;12.33;95.78;96951.56;5026562;28;19936;-62
2022/09/13 05:46:07;;;;;;;;;;;;;;;12.41;95.93;96938.50;5025465;28;20131;-61
2022/09/13 05:48:34;;;;;;;;;;;;;;;12.52;95.44;96934.69;5027324;28;19960;-62
2022/09/13 05:51:11;;;;;;;;;;;;;;;12.57;94.39;96931.94;5042750;28;19925;-63
2022/09/13 05:53:40;;;;;;;;;;;;;;;12.66;94.33;96921.34;5023836;28;20012;-62
2022/09/13 05:56:07;;;;;;;;;;;;;;;12.72;93.96;96928.38;5013623;28;19921;-62
2022/09/13 05:58:38;;;;;;;;;;;;;;;12.67;94.32;96936.53;5018525;28;19924;-62
2022/09/13 06:01:05;;;;;;;;;;;;;;;12.73;94.24;96940.88;5017611;28;20432;-62
2022/09/13 06:03:31;;;;;;;;;;;;;;;12.78;94.35;96960.97;5021565;28;20100;-62
2022/09/13 06:05:58;;;;;;;;;;;;;;;12.87;94.26;96959.31;5022294;28;20322;-62
2022/09/13 06:08:25;;;;;;;;;;;;;;;12.93;94.20;96962.81;5024355;28;20315;-63
2022/09/13 06:10:58;;;;;;;;;;;;;;;12.96;93.28;96963.06;5022144;28;20100;-62
2022/09/13 06:13:25;;;;;;;;;;;;;;;12.91;93.18;96968.53;5025480;28;19927;-63
2022/09/13 06:15:53;;;;;;;;;;;;;;;13.04;92.73;96963.59;5022227;28;19925;-62
2022/09/13 06:18:19;;;;;;;;;;;;;;;13.19;92.01;96960.00;5023395;28;19921;-62
2022/09/13 06:20:46;;;;;;;;;;;;;;;13.03;92.60;96953.78;5034184;28;19924;-62
2022/09/13 06:23:13;;;;;;;;;;;;;;;13.05;92.43;96952.41;5020481;28;19952;-62
2022/09/13 06:25:39;;;;;;;;;;;;;;;13.09;92.36;96948.06;5014217;28;19921;-63
2022/09/13 06:28:06;;;;;;;;;;;;;;;13.04;92.85;96944.56;5023504;28;19933;-62
2022/09/13 06:30:33;;;;;;;;;;;;;;;13.12;92.95;96947.50;5023877;28;20359;-63
2022/09/13 06:32:59;;;;;;;;;;;;;;;13.29;91.98;96950.94;5022689;28;19928;-63
2022/09/13 06:35:25;;;;;;;;;;;;;;;13.37;91.65;96942.22;5022293;28;20045;-63
2022/09/13 06:37:58;;;;;;;;;;;;;;;13.48;91.99;96957.41;5023181;28;19921;-62
2022/09/13 06:40:25;;;;;;;;;;;;;;;13.63;90.94;96951.06;5023021;28;19924;-63
2022/09/13 06:42:51;;;;;;;;;;;;;;;13.79;90.42;96945.53;5023950;28;19948;-62
2022/09/13 06:45:18;;;;;;;;;;;;;;;13.93;90.56;96947.59;5025328;28;19924;-63
2022/09/13 06:47:44;;;;;;;;;;;;;;;14.05;90.32;96946.13;5025568;28;19925;-63
2022/09/13 06:50:10;;;;;;;;;;;;;;;14.20;89.37;96944.38;5026690;28;19929;-62
2022/09/13 06:52:37;;;;;;;;;;;;;;;14.33;87.13;96929.25;5031428;28;19924;-62
2022/09/13 06:55:03;;;;;;;;;;;;;;;14.48;84.78;96927.50;5022232;28;19927;-63
2022/09/13 06:57:29;;;;;;;;;;;;;;;14.72;83.47;96922.06;5022588;28;19937;-63
2022/09/13 06:59:56;;;;;;;;;;;;;;;14.90;82.46;96922.41;5030673;28;19925;-63
2022/09/13 07:02:23;;;;;;;;;;;;;;;15.17;81.79;96926.44;5019636;28;20016;-63
2022/09/13 07:04:50;;;;;;;;;;;;;;;15.48;81.56;96931.47;5032145;28;20430;-63
2022/09/13 07:07:18;;;;;;;;;;;;;;;15.59;82.07;96938.41;5030036;28;19924;-62
2022/09/13 07:09:44;;;;;;;;;;;;;;;15.62;81.88;96928.81;5023011;28;20303;-61
2022/09/13 07:12:10;;;;;;;;;;;;;;;15.63;80.74;96924.19;5028733;28;20106;-62
2022/09/13 07:14:37;;;;;;;;;;;;;;;15.71;80.12;96918.84;5021509;28;20134;-62
2022/09/13 07:17:03;;;;;;;;;;;;;;;15.89;79.30;96905.50;5025037;28;19925;-60
2022/09/13 07:19:30;;;;;;;;;;;;;;;16.02;78.26;96912.13;5027603;28;20096;-61
2022/09/13 07:21:56;;;;;;;;;;;;;;;16.14;78.03;96908.91;5025775;28;19921;-61
2022/09/13 07:24:22;;;;;;;;;;;;;;;16.30;77.32;96912.19;5026923;28;19921;-62
2022/09/13 07:26:49;;;;;;;;;;;;;;;16.48;76.23;96907.75;5026283;28;20432;-61
2022/09/13 07:29:17;;;;;;;;;;;;;;;16.69;76.23;96906.56;5026004;28;19925;-60
2022/09/13 07:31:45;;;;;;;;;;;;;;;16.88;76.09;96911.94;5018562;28;20023;-60
2022/09/13 07:34:13;;;;;;;;;;;;;;;17.12;74.84;96916.38;5023397;28;20015;-61
2022/09/13 07:36:39;;;;;;;;;;;;;;;17.37;73.69;96917.75;5026154;28;19927;-61
2022/09/13 07:39:06;;;;;;;;;;;;;;;17.69;71.82;96920.59;5026876;28;19925;-61
2022/09/13 07:41:40;;;;;;;;;;;;;;;18.02;71.63;96925.81;5029079;28;20012;-62
2022/09/13 07:44:07;;;;;;;;;;;;;;;18.30;70.66;96925.72;5022878;28;20156;-61
2022/09/13 07:46:40;;;;;;;;;;;;;;;18.58;69.03;96922.78;5018616;28;19928;-60
2022/09/13 07:49:07;;;;;;;;;;;;;;;18.83;66.76;96914.97;5026564;28;19925;-61
2022/09/13 07:51:34;;;;;;;;;;;;;;;19.07;65.34;96922.03;5017858;28;19926;-62
2022/09/13 07:54:02;;;;;;;;;;;;;;;19.24;64.52;96918.50;5023889;28;20028;-62
2022/09/13 07:56:30;;;;;;;;;;;;;;;19.42;64.64;96920.47;5027216;28;20020;-60
2022/09/13 07:58:59;;;;;;;;;;;;;;;19.57;64.35;96917.22;5021125;28;20028;-60
2022/09/13 08:01:27;;;;;;;;;;;;;;;19.70;64.59;96922.91;5022457;28;20016;-60
2022/09/13 08:03:58;;;;;;;;;;;;;;;19.79;64.03;96917.41;5031399;28;19920;-61
2022/09/13 08:06:26;;;;;;;;;;;;;;;19.83;63.98;96918.38;5023432;28;20384;-61
2022/09/13 08:08:52;;;;;;;;;;;;;;;19.82;63.49;96898.34;5024563;28;19925;-62
2022/09/13 08:11:21;;;;;;;;;;;;;;;19.88;63.24;96898.97;5032065;28;20291;-61
2022/09/13 08:13:48;;;;;;;;;;;;;;;19.92;63.42;96894.44;5035044;28;19927;-63
2022/09/13 08:16:16;;;;;;;;;;;;;;;19.87;63.13;96906.41;5018440;28;20003;-62
2022/09/13 08:18:43;;;;;;;;;;;;;;;20.08;63.15;96913.22;5035149;28;19929;-62
2022/09/13 08:21:10;;;;;;;;;;;;;;;20.22;63.45;96916.56;5012379;28;20012;-61
2022/09/13 08:23:36;;;;;;;;;;;;;;;20.35;63.32;96912.00;5010886;28;19922;-61
2022/09/13 08:26:03;;;;;;;;;;;;;;;20.54;63.41;96905.31;5017723;28;19920;-61
2022/09/13 08:28:30;;;;;;;;;;;;;;;20.56;63.22;96905.00;5022366;28;20019;-61
2022/09/13 08:31:01;;;;;;;;;;;;;;;20.71;62.18;96895.41;5008936;28;19932;-60
2022/09/13 08:33:28;;;;;;;;;;;;;;;20.87;62.10;96901.13;5021269;28;20388;-60
2022/09/13 08:35:56;;;;;;;;;;;;;;;20.97;62.14;96891.72;5027593;28;19925;-61
2022/09/13 08:38:23;;;;;;;;;;;;;;;20.92;62.83;96893.53;5008016;28;20349;-62
2022/09/13 08:40:52;;;;;;;;;;;;;;;20.65;63.86;96906.56;5025035;28;19921;-61
2022/09/13 08:43:28;;;;;;;;;;;;;;;20.59;65.17;96910.63;5027927;28;19921;-61
2022/09/13 08:46:18;;;;;;;;;;;;;;;20.62;64.71;96904.50;5024909;28;20004;-66
2022/09/13 08:48:46;;;;;;;;;;;;;;;20.63;64.67;96910.78;5010419;28;20452;-61
2022/09/13 08:51:22;;;;;;;;;;;;;;;20.71;64.98;96909.94;5018112;28;19935;-62
2022/09/13 08:53:49;;;;;;;;;;;;;;;20.92;63.07;96899.03;5021344;28;19925;-63
2022/09/13 08:56:25;;;;;;;;;;;;;;;21.13;63.40;96892.78;5023693;28;19929;-64
2022/09/13 08:58:51;;;;;;;;;;;;;;;21.16;61.73;96892.09;5024837;28;19921;-62
2022/09/13 09:01:27;;;;;;;;;;;;;;;21.34;61.47;96889.22;5023525;28;20028;-65
2022/09/13 09:04:12;;;;;;;;;;;;;;;21.45;61.21;96881.38;5014768;28;20364;-65
2022/09/13 09:06:38;;;;;;;;;;;;;;;21.75;62.00;96880.50;5027126;28;20059;-65
2022/09/13 09:09:08;;;;;;;;;;;;;;;21.96;59.09;96873.00;5027012;28;19952;-60
2022/09/13 09:11:43;;;;;;;;;;;;;;;22.15;56.13;96879.94;5023358;28;19924;-62
2022/09/13 09:14:31;;;;;;;;;;;;;;;22.35;56.37;96885.75;5038017;28;19924;-62
2022/09/13 09:17:07;;;;;;;;;;;;;;;22.52;53.23;96900.47;5020582;28;20008;-67
2022/09/13 09:19:39;;;;;;;;;;;;;;;22.59;52.50;96900.75;5036499;28;20198;-67
2022/09/13 09:22:28;;;;;;;;;;;;;;;22.64;54.40;96897.78;5020390;28;20029;-65
2022/09/13 09:24:55;;;;;;;;;;;;;;;22.73;53.84;96895.72;5019877;28;20314;-66
2022/09/13 09:27:22;;;;;;;;;;;;;;;22.86;51.29;96890.97;5023991;28;20396;-65
2022/09/13 09:29:52;;;;;;;;;;;;;;;22.88;50.62;96887.09;5017460;28;19921;-66
2022/09/13 09:32:25;;;;;;;;;;;;;;;22.99;50.78;96890.97;5022735;28;20218;-63
2022/09/13 09:35:07;;;;;;;;;;;;;;;22.94;51.26;96896.72;5018646;28;20353;-64
2022/09/13 09:37:35;;;;;;;;;;;;;;;23.19;51.32;96893.97;5015284;28;19951;-64
2022/09/13 09:40:06;;;;;;;;;;;;;;;23.09;50.79;96900.75;5028876;28;19960;-65
2022/09/13 09:42:46;;;;;;;;;;;;;;;23.02;49.84;96914.31;5013985;28;20010;-65
2022/09/13 09:45:18;;;;;;;;;;;;;;;23.16;50.00;96914.78;5023566;28;20023;-60
2022/09/13 09:47:46;;;;;;;;;;;;;;;23.06;50.41;96915.25;5017417;28;19929;-60
2022/09/13 09:50:17;;;;;;;;;;;;;;;23.10;51.36;96924.44;5032668;28;20037;-60
2022/09/13 09:52:50;;;;;;;;;;;;;;;23.19;55.95;96925.16;5021155;28;20011;-62
2022/09/13 09:55:20;;;;;;;;;;;;;;;22.97;57.79;96929.19;5032794;28;19935;-61
2022/09/13 09:57:49;;;;;;;;;;;;;;;22.94;58.06;96927.91;5025990;28;20411;-61
2022/09/13 10:00:16;;;;;;;;;;;;;;;22.84;58.62;96929.16;5033870;28;19977;-63
2022/09/13 10:02:43;;;;;;;;;;;;;;;22.62;59.42;96924.88;5025125;28;20067;-62
2022/09/13 10:05:11;;;;;;;;;;;;;;;22.56;58.77;96920.75;5019348;28;20031;-63
2022/09/13 10:07:39;;;;;;;;;;;;;;;22.67;56.90;96921.91;5024572;28;19921;-63
2022/09/13 10:10:23;;;;;;;;;;;;;;;22.83;57.64;96915.72;5027199;28;19925;-64
2022/09/13 10:12:51;;;;;;;;;;;;;;;22.94;56.01;96916.06;5019446;28;20405;-61
2022/09/13 10:15:19;;;;;;;;;;;;;;;22.81;55.51;96909.75;5015448;28;20575;-64
2022/09/13 10:18:05;;;;;;;;;;;;;;;22.72;55.76;96904.31;5021127;28;19921;-65
2022/09/13 10:21:18;;;;;;;;;;;;;;;22.70;55.06;96903.88;5020387;28;20431;-61
2022/09/13 10:23:45;;;;;;;;;;;;;;;22.92;51.93;96901.81;5022793;28;20487;-64
2022/09/13 10:26:14;;;;;;;;;;;;;;;23.20;54.39;96904.66;5024845;28;20420;-62
2022/09/13 10:28:42;;;;;;;;;;;;;;;23.26;54.53;96911.53;5025513;28;20008;-63
2022/09/13 10:31:13;;;;;;;;;;;;;;;23.49;54.63;96913.03;5020359;28;19927;-62
2022/09/13 10:33:48;;;;;;;;;;;;;;;23.62;52.79;96914.63;5020509;28;20557;-63
2022/09/13 10:36:17;;;;;;;;;;;;;;;23.80;51.87;96916.31;5022027;28;19928;-61
2022/09/13 10:39:05;;;;;;;;;;;;;;;23.90;51.60;96913.84;5024684;28;19929;-60
2022/09/13 10:41:34;;;;;;;;;;;;;;;23.93;49.87;96906.00;5024073;28;19947;-63
2022/09/13 10:44:01;;;;;;;;;;;;;;;24.15;48.50;96897.16;5027063;28;20012;-66
2022/09/13 10:46:39;;;;;;;;;;;;;;;24.34;48.25;96887.38;5027771;28;19925;-64
2022/09/13 10:49:05;;;;;;;;;;;;;;;24.47;47.50;96881.78;5025607;28;20515;-62
2022/09/13 10:51:36;;;;;;;;;;;;;;;24.18;46.46;96884.59;5016551;28;20399;-66
2022/09/13 10:54:16;;;;;;;;;;;;;;;24.15;47.74;96882.53;5016809;28;19929;-67
2022/09/13 10:56:42;;;;;;;;;;;;;;;24.15;48.86;96885.31;5025212;28;20007;-66
2022/09/13 10:59:14;;;;;;;;;;;;;;;24.32;47.46;96880.59;5025913;28;20384;-66
2022/09/13 11:01:51;;;;;;;;;;;;;;;24.16;46.49;96890.47;5037785;28;19927;-66
2022/09/13 11:04:32;;;;;;;;;;;;;;;24.26;46.46;96896.66;5021471;28;19975;-66
2022/09/13 11:07:01;;;;;;;;;;;;;;;24.48;46.11;96899.97;5018793;28;20016;-66
2022/09/13 11:09:32;;;;;;;;;;;;;;;24.59;45.03;96895.53;5021756;28;20516;-66
2022/09/13 11:12:05;;;;;;;;;;;;;;;24.72;44.44;96890.69;5030209;28;20038;-66
2022/09/13 11:14:51;;;;;;;;;;;;;;;24.88;43.95;96889.91;5022510;28;19925;-66
2022/09/13 11:17:28;;;;;;;;;;;;;;;25.00;47.28;96891.75;5017963;28;19924;-66
2022/09/13 11:19:55;;;;;;;;;;;;;;;25.18;47.99;96887.44;5020464;28;19921;-66
2022/09/13 11:22:25;;;;;;;;;;;;;;;24.96;47.27;96890.88;5018381;28;20019;-66
2022/09/13 11:24:54;;;;;;;;;;;;;;;25.30;47.56;96881.00;5014210;28;19929;-66
2022/09/13 11:27:21;;;;;;;;;;;;;;;25.42;46.27;96879.25;5018614;28;19925;-66
2022/09/13 11:30:06;;;;;;;;;;;;;;;25.12;46.17;96894.44;5018756;28;19924;-66
2022/09/13 11:32:32;;;;;;;;;;;;;;;25.30;45.84;96894.03;5026266;28;19968;-65
2022/09/13 11:35:17;;;;;;;;;;;;;;;25.36;46.00;96902.88;5020979;28;19925;-65
2022/09/13 11:37:55;;;;;;;;;;;;;;;25.25;46.02;96894.31;5016816;28;20458;-62
2022/09/13 11:40:40;;;;;;;;;;;;;;;25.27;45.74;96895.56;5019893;28;19921;-62
2022/09/13 11:43:16;;;;;;;;;;;;;;;25.25;45.70;96886.00;5015373;28;19931;-63
2022/09/13 11:45:46;;;;;;;;;;;;;;;24.93;46.21;96889.63;5021322;28;19921;-63
2022/09/13 11:48:18;;;;;;;;;;;;;;;24.91;46.96;96895.53;5020569;28;19932;-63
2022/09/13 11:51:04;;;;;;;;;;;;;;;25.14;46.11;96903.16;5024825;28;19921;-62
2022/09/13 11:53:31;;;;;;;;;;;;;;;25.17;45.68;96901.66;5026389;28;19924;-62
2022/09/13 11:56:02;;;;;;;;;;;;;;;25.23;46.32;96889.13;5021839;28;19921;-62
2022/09/13 11:58:32;;;;;;;;;;;;;;;25.40;45.40;96881.59;5026427;28;19925;-62
2022/09/13 12:01:01;;;;;;;;;;;;;;;25.37;45.00;96883.09;5021507;28;20015;-63
2022/09/13 12:03:42;;;;;;;;;;;;;;;25.48;45.63;96879.75;5026504;28;20011;-63
2022/09/13 12:06:18;;;;;;;;;;;;;;;25.35;45.07;96890.97;5023591;28;19996;-63
2022/09/13 12:08:50;;;;;;;;;;;;;;;25.64;44.51;96885.25;5026875;28;19927;-63
2022/09/13 12:11:18;;;;;;;;;;;;;;;25.78;43.27;96884.75;5030425;28;20007;-63
2022/09/13 12:13:53;;;;;;;;;;;;;;;25.98;42.34;96883.59;5031560;28;20557;-63
2022/09/13 12:16:35;;;;;;;;;;;;;;;25.97;42.97;96876.44;5025278;28;20439;-63
2022/09/13 12:19:06;;;;;;;;;;;;;;;25.97;42.26;96870.09;5022058;28;20594;-66
2022/09/13 12:21:38;;;;;;;;;;;;;;;25.80;41.59;96863.81;5012691;28;19956;-69
2022/09/13 12:24:11;;;;;;;;;;;;;;;25.97;41.58;96868.13;5017458;28;19929;-69
2022/09/13 12:26:40;;;;;;;;;;;;;;;26.21;41.66;96865.38;5027058;28;19971;-69
2022/09/13 12:29:16;;;;;;;;;;;;;;;26.02;41.22;96855.13;5024460;28;19936;-65
2022/09/13 12:31:43;;;;;;;;;;;;;;;25.78;41.80;96854.25;5011462;28;20550;-64
2022/09/13 12:34:19;;;;;;;;;;;;;;;25.64;41.98;96857.53;5014331;28;19921;-64
2022/09/13 12:37:04;;;;;;;;;;;;;;;25.86;41.95;96831.06;5030078;28;20414;-64
2022/09/13 12:39:42;;;;;;;;;;;;;;;26.10;42.07;96823.56;5019725;28;19931;-64
2022/09/13 12:42:12;;;;;;;;;;;;;;;26.25;40.94;96824.63;5019106;28;19925;-65
2022/09/13 12:44:44;;;;;;;;;;;;;;;26.35;41.52;96817.69;5020042;28;20039;-68
2022/09/13 12:47:29;;;;;;;;;;;;;;;26.35;41.09;96807.38;5024817;28;20014;-69
2022/09/13 12:50:14;;;;;;;;;;;;;;;26.57;39.85;96804.16;5026491;28;19960;-68
2022/09/13 12:53:00;;;;;;;;;;;;;;;26.60;39.39;96804.22;5021201;28;19925;-67
2022/09/13 12:55:45;;;;;;;;;;;;;;;26.66;39.32;96793.59;5018219;28;19943;-67
2022/09/13 12:58:25;;;;;;;;;;;;;;;26.61;39.53;96802.25;5029371;28;19925;-68
2022/09/13 13:01:04;;;;;;;;;;;;;;;26.69;39.94;96795.63;5012219;28;20129;-68
2022/09/13 13:03:33;;;;;;;;;;;;;;;26.96;39.21;96797.63;5021268;28;19921;-69
2022/09/13 13:06:14;;;;;;;;;;;;;;;26.94;38.92;96786.06;5020894;28;19924;-67
2022/09/13 13:08:47;;;;;;;;;;;;;;;27.33;37.99;96785.00;5021743;28;19925;-70